createdAt,value
2022-07-26T00:00:24.349Z,20.10
2022-07-26T00:02:26.331Z,20.00
2022-07-26T00:04:28.596Z,20.00
2022-07-26T00:06:30.585Z,20.00
2022-07-26T00:08:32.533Z,20.00
2022-07-26T00:10:37.106Z,19.90
2022-07-26T00:12:41.837Z,19.90
2022-07-26T00:14:44.006Z,19.90
2022-07-26T00:16:46.193Z,19.90
2022-07-26T00:18:48.150Z,19.80
2022-07-26T00:20:50.416Z,19.80
2022-07-26T00:22:53.444Z,19.80
2022-07-26T00:24:55.691Z,19.80
2022-07-26T00:26:58.430Z,19.70
2022-07-26T00:29:03.315Z,19.70
2022-07-26T00:31:08.007Z,19.70
2022-07-26T00:33:10.473Z,19.70
2022-07-26T00:35:13.343Z,19.80
2022-07-26T00:37:20.121Z,19.90
2022-07-26T00:39:24.492Z,20.00
2022-07-26T00:41:26.532Z,20.00
2022-07-26T00:43:28.971Z,20.10
2022-07-26T00:45:31.554Z,20.10
2022-07-26T00:47:33.854Z,20.10
2022-07-26T00:49:35.944Z,20.10
2022-07-26T00:51:38.162Z,20.20
2022-07-26T00:53:39.851Z,20.20
2022-07-26T00:55:42.654Z,20.20
2022-07-26T00:57:45.318Z,20.20
2022-07-26T00:59:48.135Z,20.20
2022-07-26T01:01:51.219Z,20.30
2022-07-26T01:03:55.614Z,20.30
2022-07-26T01:05:57.434Z,20.30
2022-07-26T01:07:59.666Z,20.30
2022-07-26T01:10:03.161Z,20.30
2022-07-26T01:12:06.043Z,20.30
2022-07-26T01:14:09.618Z,20.30
2022-07-26T01:16:12.143Z,20.40
2022-07-26T01:18:15.316Z,20.30
2022-07-26T01:20:17.302Z,20.40
2022-07-26T01:22:19.252Z,20.40
2022-07-26T01:24:20.970Z,20.40
2022-07-26T01:26:22.733Z,20.40
2022-07-26T01:28:27.821Z,20.40
2022-07-26T01:30:29.908Z,20.20
2022-07-26T01:32:32.449Z,19.70
2022-07-26T01:34:34.543Z,19.00
2022-07-26T01:36:36.862Z,18.40
2022-07-26T01:38:44.568Z,17.80
2022-07-26T01:40:46.828Z,17.40
2022-07-26T01:42:49.525Z,17.20
2022-07-26T01:44:51.411Z,17.00
2022-07-26T01:46:55.370Z,16.90
2022-07-26T01:49:00.404Z,16.80
2022-07-26T01:51:02.874Z,16.70
2022-07-26T01:53:06.161Z,16.60
2022-07-26T01:55:08.774Z,16.60
2022-07-26T01:57:11.050Z,16.60
2022-07-26T01:59:13.402Z,16.50
2022-07-26T02:01:15.431Z,16.50
2022-07-26T02:03:17.197Z,16.50
2022-07-26T02:05:19.292Z,16.50
2022-07-26T02:07:21.345Z,16.50
2022-07-26T02:09:23.412Z,16.50
2022-07-26T02:11:29.457Z,16.50
2022-07-26T02:13:36.963Z,16.40
2022-07-26T02:15:39.014Z,16.40
2022-07-26T02:17:41.082Z,16.30
2022-07-26T02:19:43.334Z,16.20
2022-07-26T02:21:45.354Z,16.20
2022-07-26T02:23:47.192Z,16.10
2022-07-26T02:25:49.226Z,16.10
2022-07-26T02:27:51.985Z,16.10
2022-07-26T02:29:55.438Z,16.00
2022-07-26T02:31:57.996Z,16.00
2022-07-26T02:33:59.943Z,15.90
2022-07-26T02:36:01.837Z,15.90
2022-07-26T02:38:09.146Z,15.90
2022-07-26T02:40:18.665Z,15.80
2022-07-26T02:42:22.257Z,15.80
2022-07-26T02:44:25.047Z,15.80
2022-07-26T02:46:26.856Z,15.80
2022-07-26T02:48:29.363Z,15.80
2022-07-26T02:50:31.495Z,15.80
2022-07-26T02:52:33.491Z,15.80
2022-07-26T02:54:35.180Z,15.80
2022-07-26T02:56:37.065Z,15.80
2022-07-26T02:58:39.447Z,15.80
2022-07-26T03:00:41.444Z,15.80
2022-07-26T03:02:44.502Z,15.80
2022-07-26T03:04:46.503Z,15.80
2022-07-26T03:06:48.538Z,15.80
2022-07-26T03:08:51.715Z,15.80
2022-07-26T03:10:53.762Z,15.80
2022-07-26T03:12:55.530Z,15.80
2022-07-26T03:14:57.577Z,15.80
2022-07-26T03:16:59.406Z,15.80
2022-07-26T03:19:02.004Z,15.80
2022-07-26T03:21:04.537Z,15.80
2022-07-26T03:23:06.331Z,15.90
2022-07-26T03:25:08.486Z,15.90
2022-07-26T03:27:10.599Z,16.00
2022-07-26T03:29:13.161Z,16.00
2022-07-26T03:31:15.894Z,16.10
2022-07-26T03:33:19.185Z,16.20
2022-07-26T03:35:22.003Z,16.20
2022-07-26T03:37:23.956Z,16.30
2022-07-26T03:39:25.963Z,16.30
2022-07-26T03:41:27.876Z,16.30
2022-07-26T03:43:30.291Z,16.40
2022-07-26T03:45:32.827Z,16.40
2022-07-26T03:47:34.774Z,16.40
2022-07-26T03:49:36.511Z,16.40
2022-07-26T03:51:38.434Z,16.40
2022-07-26T03:53:41.057Z,16.30
2022-07-26T03:56:01.721Z,16.30
2022-07-26T03:58:03.613Z,16.20
2022-07-26T04:00:06.364Z,16.20
2022-07-26T04:02:09.423Z,16.20
2022-07-26T04:04:12.929Z,16.20
2022-07-26T04:06:15.894Z,16.20
2022-07-26T04:08:17.763Z,16.20
2022-07-26T04:10:20.452Z,16.10
2022-07-26T04:12:22.482Z,16.20
2022-07-26T04:14:24.501Z,16.20
2022-07-26T04:16:26.930Z,16.20
2022-07-26T04:18:28.885Z,16.20
2022-07-26T04:20:30.641Z,16.20
2022-07-26T04:22:32.360Z,16.20
2022-07-26T04:24:35.063Z,16.20
2022-07-26T04:26:37.033Z,16.30
2022-07-26T04:28:38.783Z,16.30
2022-07-26T04:30:41.757Z,16.30
2022-07-26T04:32:46.423Z,16.30
2022-07-26T04:34:48.674Z,16.40
2022-07-26T04:36:50.341Z,16.40
2022-07-26T04:38:52.038Z,16.40
2022-07-26T04:40:54.875Z,16.40
2022-07-26T04:42:57.843Z,16.40
2022-07-26T04:45:03.120Z,16.50
2022-07-26T04:47:08.143Z,16.50
2022-07-26T04:49:09.924Z,16.50
2022-07-26T04:51:13.054Z,16.60
2022-07-26T04:53:15.965Z,16.60
2022-07-26T04:55:18.853Z,16.70
2022-07-26T04:57:20.535Z,16.60
2022-07-26T04:59:22.249Z,16.60
2022-07-26T05:01:24.180Z,16.60
2022-07-26T05:03:25.906Z,16.60
2022-07-26T05:05:30.061Z,16.60
2022-07-26T05:07:46.753Z,16.60
2022-07-26T05:09:48.506Z,16.70
2022-07-26T05:11:51.298Z,16.70
2022-07-26T05:13:52.981Z,16.80
2022-07-26T05:15:55.235Z,16.80
2022-07-26T05:18:07.060Z,16.80
2022-07-26T05:20:13.546Z,16.90
2022-07-26T05:22:16.144Z,16.90
2022-07-26T05:24:18.807Z,16.90
2022-07-26T05:26:21.457Z,17.00
2022-07-26T05:28:23.250Z,17.10
2022-07-26T05:30:26.517Z,17.10
2022-07-26T05:32:29.259Z,17.20
2022-07-26T05:34:31.222Z,17.40
2022-07-26T05:36:32.964Z,17.50
2022-07-26T05:38:34.736Z,17.60
2022-07-26T05:40:36.499Z,17.60
2022-07-26T05:42:38.206Z,17.60
2022-07-26T05:44:42.722Z,17.60
2022-07-26T05:46:45.890Z,17.60
2022-07-26T05:48:47.671Z,17.60
2022-07-26T05:50:49.931Z,17.70
2022-07-26T05:52:52.154Z,17.90
2022-07-26T05:54:54.198Z,18.00
2022-07-26T05:56:56.555Z,18.10
2022-07-26T05:58:58.222Z,18.40
2022-07-26T06:01:00.258Z,18.60
2022-07-26T06:03:22.028Z,18.90
2022-07-26T06:05:24.924Z,18.90
2022-07-26T06:07:26.791Z,18.90
2022-07-26T06:09:28.493Z,18.80
2022-07-26T06:11:30.325Z,18.60
2022-07-26T06:13:32.111Z,18.50
2022-07-26T06:15:33.795Z,18.30
2022-07-26T06:17:40.915Z,18.20
2022-07-26T06:19:47.365Z,18.10
2022-07-26T06:21:49.591Z,18.00
2022-07-26T06:23:53.383Z,18.00
2022-07-26T06:25:55.084Z,18.00
2022-07-26T06:27:56.884Z,18.00
2022-07-26T06:29:58.546Z,18.10
2022-07-26T06:32:00.387Z,18.10
2022-07-26T06:34:02.525Z,18.20
2022-07-26T06:36:04.582Z,18.20
2022-07-26T06:38:06.837Z,18.20
2022-07-26T06:40:12.542Z,18.30
2022-07-26T06:42:14.218Z,18.50
2022-07-26T06:44:16.503Z,18.60
2022-07-26T06:46:19.381Z,18.70
2022-07-26T06:48:21.380Z,18.80
2022-07-26T06:50:25.673Z,18.80
2022-07-26T06:52:27.648Z,18.80
2022-07-26T06:54:30.131Z,18.90
2022-07-26T06:56:32.474Z,18.90
2022-07-26T06:58:35.329Z,18.90
2022-07-26T07:00:37.060Z,19.00
2022-07-26T07:02:38.751Z,19.00
2022-07-26T07:04:40.453Z,19.30
2022-07-26T07:06:42.214Z,19.90
2022-07-26T07:08:44.109Z,20.90
2022-07-26T07:10:47.895Z,22.20
2022-07-26T07:12:52.483Z,23.40
2022-07-26T07:14:54.146Z,24.40
2022-07-26T07:16:56.611Z,25.20
2022-07-26T07:18:58.305Z,25.60
2022-07-26T07:20:59.985Z,26.10
2022-07-26T07:23:01.784Z,26.50
2022-07-26T07:25:03.776Z,26.80
2022-07-26T07:27:10.655Z,26.80
2022-07-26T07:29:17.382Z,27.10
2022-07-26T07:31:19.864Z,27.10
2022-07-26T07:33:22.689Z,27.10
2022-07-26T07:35:25.088Z,26.90
2022-07-26T07:37:52.272Z,27.10
2022-07-26T07:39:55.700Z,27.60
2022-07-26T07:41:58.729Z,27.70
2022-07-26T07:44:01.295Z,27.50
2022-07-26T07:46:03.616Z,28.10
2022-07-26T07:48:05.738Z,28.40
2022-07-26T07:50:08.522Z,28.50
2022-07-26T07:52:10.235Z,28.70
2022-07-26T07:54:11.967Z,29.00
2022-07-26T07:56:13.662Z,29.40
2022-07-26T07:58:17.336Z,29.40
2022-07-26T08:00:19.587Z,29.80
2022-07-26T08:02:29.244Z,29.90
2022-07-26T08:04:31.076Z,30.10
2022-07-26T08:06:33.358Z,29.50
2022-07-26T08:08:36.123Z,29.10
2022-07-26T08:10:38.798Z,29.20
2022-07-26T08:12:45.797Z,29.70
2022-07-26T08:14:53.064Z,29.90
2022-07-26T08:16:55.190Z,30.30
2022-07-26T08:18:58.379Z,30.10
2022-07-26T08:21:00.415Z,29.00
2022-07-26T08:23:02.258Z,28.90
2022-07-26T08:25:05.125Z,29.40
2022-07-26T08:27:07.554Z,29.30
2022-07-26T08:29:09.655Z,28.40
2022-07-26T08:31:11.461Z,27.70
2022-07-26T08:33:13.187Z,27.50
2022-07-26T08:35:17.729Z,27.70
2022-07-26T08:37:21.371Z,27.90
2022-07-26T08:39:23.177Z,28.70
2022-07-26T08:41:26.409Z,29.90
2022-07-26T08:43:28.984Z,30.70
2022-07-26T08:45:31.744Z,30.90
2022-07-26T08:47:37.598Z,30.90
2022-07-26T08:49:45.427Z,29.90
2022-07-26T08:51:47.098Z,29.00
2022-07-26T08:53:49.371Z,29.00
2022-07-26T08:56:07.032Z,28.50
2022-07-26T08:58:09.139Z,27.80
2022-07-26T09:00:29.552Z,28.00
2022-07-26T09:02:41.945Z,28.20
2022-07-26T09:04:47.043Z,27.80
2022-07-26T09:07:04.898Z,26.90
2022-07-26T09:09:12.745Z,25.80
2022-07-26T09:11:23.730Z,26.70
2022-07-26T09:13:25.414Z,28.10
2022-07-26T09:15:29.575Z,29.30
2022-07-26T09:17:45.082Z,30.00
2022-07-26T09:20:02.312Z,30.20
2022-07-26T09:22:13.669Z,30.60
2022-07-26T09:24:50.676Z,30.80
2022-07-26T09:27:01.105Z,30.70
2022-07-26T09:29:12.709Z,31.10
2022-07-26T09:31:22.874Z,31.30
2022-07-26T09:33:25.415Z,31.40
2022-07-26T09:35:49.779Z,31.50
2022-07-26T09:37:53.265Z,31.20
2022-07-26T09:40:01.397Z,30.40
2022-07-26T09:44:31.304Z,30.10
2022-07-26T09:46:35.501Z,30.70
2022-07-26T09:49:08.261Z,31.30
2022-07-26T09:51:02.397Z,31.00
2022-07-26T09:53:12.356Z,31.10
2022-07-26T09:55:16.353Z,31.10
2022-07-26T09:57:20.540Z,31.70
2022-07-26T09:59:24.292Z,32.10
2022-07-26T10:01:26.012Z,32.00
2022-07-26T10:03:30.295Z,32.00
2022-07-26T10:05:34.116Z,31.90
2022-07-26T10:07:37.531Z,32.10
2022-07-26T10:10:14.402Z,31.70
2022-07-26T10:12:17.174Z,31.10
2022-07-26T10:14:37.258Z,30.80
2022-07-26T10:16:38.940Z,30.80
2022-07-26T10:18:40.823Z,30.40
2022-07-26T10:20:46.653Z,29.60
2022-07-26T10:22:51.306Z,29.20
2022-07-26T10:24:58.289Z,29.80
2022-07-26T10:27:00.278Z,30.00
2022-07-26T10:29:25.769Z,30.20
2022-07-26T10:31:30.307Z,30.70
2022-07-26T10:33:43.163Z,30.90
2022-07-26T10:35:45.263Z,31.00
2022-07-26T10:38:26.014Z,30.90
2022-07-26T10:40:30.145Z,30.50
2022-07-26T10:42:43.357Z,31.00
2022-07-26T10:44:45.262Z,31.00
2022-07-26T10:47:08.980Z,31.10
2022-07-26T10:49:18.614Z,31.70
2022-07-26T10:51:29.586Z,31.50
2022-07-26T10:53:32.455Z,31.40
2022-07-26T10:55:46.042Z,30.60
2022-07-26T10:57:50.108Z,30.60
2022-07-26T10:59:56.488Z,30.00
2022-07-26T11:01:58.801Z,30.40
2022-07-26T11:04:01.054Z,30.40
2022-07-26T11:06:32.311Z,29.80
2022-07-26T11:08:33.994Z,29.90
2022-07-26T11:10:40.900Z,30.00
2022-07-26T11:12:42.837Z,30.50
2022-07-26T11:14:48.303Z,31.10
2022-07-26T11:16:52.834Z,30.80
2022-07-26T11:18:56.312Z,30.90
2022-07-26T11:21:09.821Z,29.90
2022-07-26T11:23:25.901Z,29.60
2022-07-26T11:25:28.899Z,29.20
2022-07-26T11:27:31.155Z,29.50
2022-07-26T11:29:38.690Z,29.20
2022-07-26T11:31:50.604Z,29.20
2022-07-26T11:34:03.749Z,29.40
2022-07-26T11:36:06.348Z,30.10
2022-07-26T11:38:12.146Z,30.30
2022-07-26T11:40:14.211Z,30.30
2022-07-26T11:42:19.514Z,29.60
2022-07-26T11:44:23.117Z,29.20
2022-07-26T11:46:36.820Z,29.60
2022-07-26T11:48:49.152Z,29.60
2022-07-26T11:50:51.298Z,29.50
2022-07-26T11:52:53.211Z,29.80
2022-07-26T11:54:54.897Z,29.70
2022-07-26T11:57:01.630Z,30.20
2022-07-26T11:59:04.719Z,30.50
2022-07-26T12:01:07.897Z,30.90
2022-07-26T12:03:10.609Z,30.80
2022-07-26T12:05:22.184Z,30.70
2022-07-26T12:07:24.076Z,30.30
2022-07-26T12:09:40.803Z,29.90
2022-07-26T12:11:45.987Z,29.60
2022-07-26T12:14:02.140Z,29.30
2022-07-26T12:16:04.284Z,29.30
2022-07-26T12:18:06.003Z,28.60
2022-07-26T12:20:11.979Z,29.40
2022-07-26T12:22:18.652Z,29.50
2022-07-26T12:24:38.499Z,29.80
2022-07-26T12:26:40.780Z,30.30
2022-07-26T12:28:43.059Z,30.50
2022-07-26T12:30:45.670Z,30.00
2022-07-26T12:32:48.869Z,30.40
2022-07-26T12:35:07.511Z,30.30
2022-07-26T12:37:17.821Z,30.00
2022-07-26T12:39:24.396Z,30.00
2022-07-26T12:41:40.003Z,29.80
2022-07-26T12:43:42.464Z,30.20
2022-07-26T12:45:50.844Z,30.70
2022-07-26T12:47:54.627Z,31.00
2022-07-26T12:49:56.358Z,31.20
2022-07-26T12:51:58.735Z,30.80
2022-07-26T12:54:03.897Z,30.70
2022-07-26T12:56:05.778Z,30.60
2022-07-26T12:58:07.815Z,30.50
2022-07-26T13:00:10.992Z,30.20
2022-07-26T13:02:13.214Z,30.40
2022-07-26T13:04:15.515Z,30.40
2022-07-26T13:06:17.654Z,31.10
2022-07-26T13:08:19.315Z,31.50
2022-07-26T13:10:36.939Z,31.30
2022-07-26T13:12:40.371Z,31.20
2022-07-26T13:14:42.498Z,31.40
2022-07-26T13:16:45.160Z,31.50
2022-07-26T13:18:46.992Z,31.20
2022-07-26T13:20:48.910Z,30.90
2022-07-26T13:22:50.635Z,30.70
2022-07-26T13:24:52.350Z,30.80
2022-07-26T13:26:55.903Z,30.50
2022-07-26T13:28:57.637Z,30.90
2022-07-26T13:31:00.505Z,31.70
2022-07-26T13:33:02.819Z,31.30
2022-07-26T13:35:05.008Z,31.40
2022-07-26T13:37:08.876Z,31.30
2022-07-26T13:39:10.834Z,31.00
2022-07-26T13:41:12.520Z,30.80
2022-07-26T13:43:14.950Z,31.10
2022-07-26T13:45:16.632Z,31.20
2022-07-26T13:47:18.323Z,30.80
2022-07-26T13:49:20.371Z,31.00
2022-07-26T13:51:22.166Z,31.00
2022-07-26T13:53:25.065Z,31.00
2022-07-26T13:55:26.742Z,31.00
2022-07-26T13:57:47.202Z,30.90
2022-07-26T13:59:54.167Z,31.30
2022-07-26T14:01:56.619Z,30.70
2022-07-26T14:03:58.924Z,29.70
2022-07-26T14:06:00.841Z,29.00
2022-07-26T14:08:02.512Z,27.90
2022-07-26T14:10:04.753Z,28.00
2022-07-26T14:12:06.623Z,29.00
2022-07-26T14:14:11.058Z,29.90
2022-07-26T14:16:13.198Z,30.00
2022-07-26T14:18:14.967Z,29.90
2022-07-26T14:20:17.466Z,29.80
2022-07-26T14:22:20.498Z,29.50
2022-07-26T14:24:22.211Z,29.10
2022-07-26T14:26:25.666Z,28.90
2022-07-26T14:28:28.846Z,28.30
2022-07-26T14:30:30.978Z,27.80
2022-07-26T14:32:33.432Z,28.10
2022-07-26T14:34:35.210Z,28.80
2022-07-26T14:36:36.944Z,29.60
2022-07-26T14:38:42.971Z,30.30
2022-07-26T14:40:44.911Z,30.40
2022-07-26T14:42:46.765Z,31.00
2022-07-26T14:44:48.419Z,31.50
2022-07-26T14:46:50.242Z,30.80
2022-07-26T14:48:54.928Z,30.10
2022-07-26T14:51:09.087Z,30.00
2022-07-26T14:53:13.879Z,30.50
2022-07-26T14:55:18.305Z,30.50
2022-07-26T14:57:25.403Z,30.50
2022-07-26T14:59:27.191Z,29.80
2022-07-26T15:01:29.041Z,29.70
2022-07-26T15:03:31.023Z,30.40
2022-07-26T15:05:32.762Z,30.10
2022-07-26T15:07:34.431Z,29.70
2022-07-26T15:09:36.118Z,29.60
2022-07-26T15:11:37.871Z,29.70
2022-07-26T15:13:39.558Z,30.00
2022-07-26T15:15:41.980Z,29.80
2022-07-26T15:17:43.671Z,29.10
2022-07-26T15:19:45.346Z,28.40
2022-07-26T15:21:48.417Z,28.50
2022-07-26T15:23:50.216Z,28.90
2022-07-26T15:25:52.641Z,29.70
2022-07-26T15:27:54.435Z,29.50
2022-07-26T15:30:01.085Z,28.80
2022-07-26T15:32:06.607Z,27.80
2022-07-26T15:34:09.173Z,27.20
2022-07-26T15:36:12.567Z,27.30
2022-07-26T15:38:15.082Z,28.10
2022-07-26T15:40:17.366Z,28.60
2022-07-26T15:42:20.868Z,28.90
2022-07-26T15:44:25.920Z,29.20
2022-07-26T15:46:28.054Z,29.80
2022-07-26T15:48:30.732Z,29.40
2022-07-26T15:50:33.104Z,28.90
2022-07-26T15:52:39.401Z,28.50
2022-07-26T15:54:42.213Z,27.30
2022-07-26T15:56:44.846Z,26.50
2022-07-26T15:58:49.446Z,25.90
2022-07-26T16:00:52.146Z,25.70
2022-07-26T16:02:54.666Z,25.50
2022-07-26T16:04:56.671Z,25.40
2022-07-26T16:06:58.308Z,25.80
2022-07-26T16:09:18.880Z,26.50
2022-07-26T16:11:20.924Z,27.40
2022-07-26T16:13:22.754Z,28.20
2022-07-26T16:15:24.779Z,28.20
2022-07-26T16:17:26.440Z,28.80
2022-07-26T16:19:28.731Z,28.50
2022-07-26T16:21:31.544Z,27.90
2022-07-26T16:23:36.224Z,27.60
2022-07-26T16:25:38.145Z,27.90
2022-07-26T16:27:42.273Z,28.60
2022-07-26T16:29:44.702Z,29.00
2022-07-26T16:31:48.849Z,29.40
2022-07-26T16:33:50.525Z,29.30
2022-07-26T16:35:52.293Z,28.90
2022-07-26T16:37:53.944Z,28.20
2022-07-26T16:39:55.850Z,27.80
2022-07-26T16:41:59.029Z,27.10
2022-07-26T16:44:04.062Z,27.20
2022-07-26T16:46:05.717Z,27.20
2022-07-26T16:48:07.533Z,26.20
2022-07-26T16:50:12.646Z,25.50
2022-07-26T16:52:14.367Z,25.40
2022-07-26T16:54:16.143Z,25.30
2022-07-26T16:56:18.563Z,25.60
2022-07-26T16:58:22.288Z,25.90
2022-07-26T17:00:24.225Z,26.10
2022-07-26T17:02:26.063Z,26.10
2022-07-26T17:04:28.074Z,26.40
2022-07-26T17:06:29.796Z,26.80
2022-07-26T17:08:32.184Z,27.30
2022-07-26T17:10:34.081Z,27.30
2022-07-26T17:12:36.521Z,27.40
2022-07-26T17:14:38.245Z,27.30
2022-07-26T17:16:40.020Z,27.60
2022-07-26T17:18:41.820Z,27.80
2022-07-26T17:20:43.568Z,27.80
2022-07-26T17:22:45.261Z,27.90
2022-07-26T17:24:47.890Z,28.00
2022-07-26T17:26:49.707Z,27.60
2022-07-26T17:28:51.423Z,27.30
2022-07-26T17:30:53.224Z,27.40
2022-07-26T17:32:54.911Z,27.10
2022-07-26T17:34:56.740Z,26.90
2022-07-26T17:37:00.421Z,26.30
2022-07-26T17:39:03.430Z,25.80
2022-07-26T17:41:05.179Z,25.50
2022-07-26T17:43:07.499Z,25.10
2022-07-26T17:45:09.699Z,24.80
2022-07-26T17:47:27.689Z,24.50
2022-07-26T17:49:31.521Z,24.20
2022-07-26T17:51:33.286Z,23.80
2022-07-26T17:53:35.067Z,23.50
2022-07-26T17:55:36.857Z,23.30
2022-07-26T17:57:39.055Z,23.10
2022-07-26T17:59:41.039Z,23.00
2022-07-26T18:01:53.596Z,22.80
2022-07-26T18:03:55.860Z,22.70
2022-07-26T18:05:57.618Z,22.50
2022-07-26T18:07:59.716Z,22.40
2022-07-26T18:10:01.456Z,22.20
2022-07-26T18:12:03.478Z,22.20
2022-07-26T18:14:10.758Z,22.10
2022-07-26T18:16:14.074Z,22.00
2022-07-26T18:18:17.343Z,21.90
2022-07-26T18:20:19.704Z,21.80
2022-07-26T18:22:21.471Z,21.70
2022-07-26T18:24:23.392Z,21.60
2022-07-26T18:26:26.563Z,21.60
2022-07-26T18:28:28.266Z,21.50
2022-07-26T18:30:32.006Z,21.40
2022-07-26T18:32:37.911Z,21.30
2022-07-26T18:34:40.133Z,21.30
2022-07-26T18:36:53.785Z,21.20
2022-07-26T18:38:57.552Z,21.20
2022-07-26T18:40:59.232Z,21.10
2022-07-26T18:43:01.070Z,21.00
2022-07-26T18:45:03.291Z,20.90
2022-07-26T18:47:09.413Z,20.80
2022-07-26T18:49:19.723Z,20.70
2022-07-26T18:51:22.098Z,20.70
2022-07-26T18:53:28.287Z,20.60
2022-07-26T18:55:29.958Z,20.60
2022-07-26T18:57:32.335Z,20.60
2022-07-26T18:59:34.050Z,20.60
2022-07-26T19:01:36.016Z,20.50
2022-07-26T19:03:38.386Z,20.50
2022-07-26T19:05:40.319Z,20.50
2022-07-26T19:07:42.822Z,20.50
2022-07-26T19:09:44.851Z,20.50
2022-07-26T19:11:46.809Z,20.50
2022-07-26T19:13:48.811Z,20.50
2022-07-26T19:15:50.575Z,20.50
2022-07-26T19:17:52.724Z,20.50
2022-07-26T19:19:55.890Z,20.50
2022-07-26T19:21:59.649Z,20.40
2022-07-26T19:24:01.549Z,20.40
2022-07-26T19:26:03.599Z,20.40
2022-07-26T19:28:09.237Z,20.40
2022-07-26T19:30:12.334Z,20.30
2022-07-26T19:32:14.505Z,20.30
2022-07-26T19:34:16.590Z,20.30
2022-07-26T19:36:25.790Z,20.30
2022-07-26T19:38:28.605Z,20.30
2022-07-26T19:40:32.675Z,20.30
2022-07-26T19:42:34.733Z,20.30
2022-07-26T19:44:36.632Z,20.30
2022-07-26T19:46:41.110Z,20.30
2022-07-26T19:48:45.941Z,20.30
2022-07-26T19:50:48.902Z,20.30
2022-07-26T19:52:52.205Z,20.30
2022-07-26T19:54:56.349Z,20.20
2022-07-26T19:56:58.247Z,20.20
2022-07-26T19:59:00.784Z,20.10
2022-07-26T20:01:05.023Z,20.10
2022-07-26T20:03:07.127Z,20.00
2022-07-26T20:05:11.284Z,20.00
2022-07-26T20:07:19.844Z,19.90
2022-07-26T20:09:22.555Z,19.90
2022-07-26T20:11:25.241Z,19.90
2022-07-26T20:13:27.171Z,19.80
2022-07-26T20:15:29.770Z,19.70
2022-07-26T20:17:35.471Z,19.70
2022-07-26T20:19:37.489Z,19.70
2022-07-26T20:21:39.531Z,19.60
2022-07-26T20:23:41.436Z,19.50
2022-07-26T20:25:43.714Z,19.50
2022-07-26T20:27:48.235Z,19.40
2022-07-26T20:29:51.056Z,19.30
2022-07-26T20:31:53.008Z,19.20
2022-07-26T20:33:55.075Z,19.10
2022-07-26T20:35:57.250Z,19.00
2022-07-26T20:37:59.133Z,18.90
2022-07-26T20:40:01.111Z,18.80
2022-07-26T20:42:03.878Z,18.80
2022-07-26T20:44:05.903Z,18.70
2022-07-26T20:46:08.270Z,18.70
2022-07-26T20:48:11.401Z,18.70
2022-07-26T20:50:14.052Z,18.70
2022-07-26T20:52:15.890Z,18.70
2022-07-26T20:54:17.870Z,18.70
2022-07-26T20:56:19.830Z,18.80
2022-07-26T20:58:22.311Z,18.80
2022-07-26T21:00:26.091Z,18.80
2022-07-26T21:02:28.106Z,18.80
2022-07-26T21:04:30.220Z,18.80
2022-07-26T21:06:33.261Z,18.90
2022-07-26T21:08:36.791Z,18.70
2022-07-26T21:10:39.705Z,18.70
2022-07-26T21:12:42.577Z,18.70
2022-07-26T21:14:44.635Z,18.60
2022-07-26T21:16:46.549Z,18.50
2022-07-26T21:18:52.453Z,18.50
2022-07-26T21:20:56.024Z,18.50
2022-07-26T21:23:12.981Z,18.40
2022-07-26T21:25:19.561Z,18.40
2022-07-26T21:27:22.006Z,18.40
2022-07-26T21:29:24.501Z,18.30
2022-07-26T21:31:26.762Z,18.30
2022-07-26T21:33:28.798Z,18.30
2022-07-26T21:35:34.982Z,18.30
2022-07-26T21:37:38.619Z,18.30
2022-07-26T21:39:40.770Z,18.30
2022-07-26T21:41:42.766Z,18.30
2022-07-26T21:43:46.269Z,18.30
2022-07-26T21:45:48.161Z,18.40
2022-07-26T21:47:50.223Z,18.30
2022-07-26T21:49:52.228Z,18.20
2022-07-26T21:51:54.364Z,18.20
2022-07-26T21:53:56.554Z,18.20
2022-07-26T21:55:59.966Z,18.10
2022-07-26T21:58:01.654Z,18.10
2022-07-26T22:00:06.670Z,18.10
2022-07-26T22:02:08.540Z,18.00
2022-07-26T22:04:10.683Z,18.00
2022-07-26T22:06:14.396Z,18.00
2022-07-26T22:08:16.198Z,18.00
2022-07-26T22:10:18.969Z,17.90
2022-07-26T22:12:20.955Z,17.80
2022-07-26T22:14:25.135Z,17.80
2022-07-26T22:16:26.967Z,17.80
2022-07-26T22:18:29.174Z,17.80
2022-07-26T22:20:32.506Z,17.80
2022-07-26T22:22:36.532Z,17.80
2022-07-26T22:24:38.514Z,17.90
2022-07-26T22:26:42.232Z,17.90
2022-07-26T22:28:44.334Z,18.00
2022-07-26T22:30:46.319Z,18.00
2022-07-26T22:32:48.339Z,18.10
2022-07-26T22:34:53.077Z,18.10
2022-07-26T22:36:55.267Z,18.10
2022-07-26T22:38:57.137Z,18.10
2022-07-26T22:40:59.789Z,18.10
2022-07-26T22:43:02.066Z,18.10
2022-07-26T22:45:09.820Z,18.20
2022-07-26T22:47:12.559Z,18.20
2022-07-26T22:49:15.214Z,18.10
2022-07-26T22:51:17.664Z,18.10
2022-07-26T22:53:20.434Z,18.10
2022-07-26T22:55:22.711Z,18.00
2022-07-26T22:57:24.901Z,17.90
2022-07-26T22:59:26.749Z,17.90
2022-07-26T23:01:33.220Z,17.80
2022-07-26T23:03:38.290Z,17.90
2022-07-26T23:05:46.518Z,17.80
2022-07-26T23:07:50.876Z,17.80
2022-07-26T23:09:52.926Z,17.80
2022-07-26T23:11:55.415Z,17.80
2022-07-26T23:13:59.346Z,17.80
2022-07-26T23:16:02.026Z,17.80
2022-07-26T23:18:04.071Z,17.70
2022-07-26T23:20:07.754Z,17.80
2022-07-26T23:22:10.290Z,17.70
2022-07-26T23:24:12.331Z,17.70
2022-07-26T23:26:14.448Z,17.70
2022-07-26T23:28:24.767Z,17.70
2022-07-26T23:30:40.699Z,17.70
2022-07-26T23:32:44.010Z,17.70
2022-07-26T23:34:48.277Z,17.60
2022-07-26T23:36:50.384Z,17.60
2022-07-26T23:38:52.661Z,17.60
2022-07-26T23:40:54.372Z,17.60
2022-07-26T23:42:56.798Z,17.60
2022-07-26T23:44:58.567Z,17.70
2022-07-26T23:47:00.742Z,17.60
2022-07-26T23:49:04.809Z,17.60
2022-07-26T23:51:06.659Z,17.60
2022-07-26T23:53:09.149Z,17.50
2022-07-26T23:55:11.479Z,17.50
2022-07-26T23:57:13.454Z,17.40
2022-07-26T23:59:15.477Z,17.40
